Carnival Splendor — 3EUS — position and weather

sailwx.info

Track history (hours):
 
Tides and Currents Weather Stations Pressure Air Temp Water Temp Dewpoint Dewpoint Depression Visibility Wind Speed Wind Dir Waves Ship Positions

Carnival Splendor

Last reported at 2016-Feb-09 14:12 UTC. Time now 2016-Feb-09 15:41 UTC.
Position N 20°31' W 086°57'.

Length 289 m; draft 8.3 m.

Type: Passenger vessel. MMSI: 372808000.

Date/timePositionNaut miles runAvg speedWind from/ knotsBaromVisibWave heightAir tempDewpointWater temp
2016-Feb-09 14:12N 20°31' W 086°57'48512.8
2016-Feb-08 00:18N 25°22' W 079°57'1114.4
2016-Feb-07 23:31N 25°33' W 079°57'1313.8
2016-Feb-07 22:33N 25°45' W 080°04'7 6.7
2016-Feb-07 21:33N 25°47' W 080°11'1 0.5
2016-Feb-07 20:33N 25°47' W 080°10'0 0.0
2016-Feb-07 19:33N 25°47' W 080°10'0 0.0
2016-Feb-07 18:33N 25°47' W 080°10'0 0.0
2016-Feb-07 17:32N 25°47' W 080°10'0 0.0
2016-Feb-07 16:32N 25°47' W 080°10'0 0.0
2016-Feb-07 15:31N 25°47' W 080°10'0 0.0
2016-Feb-07 14:31N 25°47' W 080°10'0 0.0
2016-Feb-07 13:33N 25°47' W 080°10'0 0.0
2016-Feb-07 12:33N 25°47' W 080°10'0 0.1
2016-Feb-07 11:32N 25°47' W 080°10'6 6.3
2016-Feb-07 10:33N 25°47' W 080°03'1212.5
2016-Feb-07 09:33N 25°53' W 079°51'1414.4
2016-Feb-07 08:34N 26°01' W 079°38'1514.5
2016-Feb-07 07:33N 26°08' W 079°24'34016.5
2016-Feb-06 11:00N 23°48' W 073°42'52113.9 050 / 201016.010.8 1.024.021.027.0
2016-Feb-04 21:27N 18°37' W 066°14'1113.0
2016-Feb-04 20:34N 18°27' W 066°07'0 0.3
2016-Feb-04 19:23N 18°28' W 066°07'0 0.0
2016-Feb-04 18:32N 18°28' W 066°07'0 0.0
2016-Feb-04 17:19N 18°28' W 066°07'0 0.0
2016-Feb-04 16:25N 18°28' W 066°07'0 0.0
2016-Feb-04 15:33N 18°28' W 066°07'0 0.0
2016-Feb-04 14:30N 18°28' W 066°07'0 0.0
2016-Feb-04 13:29N 18°28' W 066°07'0 0.0
2016-Feb-04 12:32N 18°28' W 066°07'3 3.3
2016-Feb-04 11:33N 18°31' W 066°07'  
2016-Feb-02 07:00N 20°12' W 071°54'54217.2 160 / 241014.3 3.025.620.027.5
2016-Jan-31 23:32N 25°28' W 079°52'1717.1
2016-Jan-31 22:33N 25°43' W 079°59'1010.3
2016-Jan-31 21:33N 25°47' W 080°10'0 0.0
2016-Jan-31 20:33N 25°47' W 080°10'0 0.0
2016-Jan-31 19:33N 25°47' W 080°10'0 0.0
2016-Jan-31 18:32N 25°47' W 080°10'0 0.0
2016-Jan-31 17:32N 25°47' W 080°10'0 0.0
2016-Jan-31 16:31N 25°47' W 080°10'0 0.0
2016-Jan-31 15:31N 25°47' W 080°10'0 0.0
2016-Jan-31 14:33N 25°47' W 080°10'0 0.0
2016-Jan-31 13:33N 25°47' W 080°10'0 0.0
2016-Jan-31 12:33N 25°47' W 080°10'1 0.8
2016-Jan-31 11:33N 25°46' W 080°09'9 9.0
2016-Jan-31 10:33N 25°44' W 079°60'1211.7
2016-Jan-31 09:33N 25°33' W 079°57'  
Track history (hours):
 
Tides and Currents Weather Stations Pressure Air Temp Water Temp Dewpoint Dewpoint Depression Visibility Wind Speed Wind Dir Waves Ship Positions

Carnival Splendor

Last reported at 2016-Feb-09 14:12 UTC. Time now 2016-Feb-09 15:41 UTC.
Position N 20°31' W 086°57'.

Length 289 m; draft 8.3 m.

Type: Passenger vessel. MMSI: 372808000.

Date/timePositionNaut miles runAvg speedWind from/ knotsBaromVisibWave heightAir tempDewpointWater temp
2016-Feb-09 14:12N 20°31' W 086°57'48512.8
2016-Feb-08 00:18N 25°22' W 079°57'1114.4
2016-Feb-07 23:31N 25°33' W 079°57'1313.8
2016-Feb-07 22:33N 25°45' W 080°04'7 6.7
2016-Feb-07 21:33N 25°47' W 080°11'1 0.5
2016-Feb-07 20:33N 25°47' W 080°10'0 0.0
2016-Feb-07 19:33N 25°47' W 080°10'0 0.0
2016-Feb-07 18:33N 25°47' W 080°10'0 0.0
2016-Feb-07 17:32N 25°47' W 080°10'0 0.0
2016-Feb-07 16:32N 25°47' W 080°10'0 0.0
2016-Feb-07 15:31N 25°47' W 080°10'0 0.0
2016-Feb-07 14:31N 25°47' W 080°10'0 0.0
2016-Feb-07 13:33N 25°47' W 080°10'0 0.0
2016-Feb-07 12:33N 25°47' W 080°10'0 0.1
2016-Feb-07 11:32N 25°47' W 080°10'6 6.3
2016-Feb-07 10:33N 25°47' W 080°03'1212.5
2016-Feb-07 09:33N 25°53' W 079°51'1414.4
2016-Feb-07 08:34N 26°01' W 079°38'1514.5
2016-Feb-07 07:33N 26°08' W 079°24'34016.5
2016-Feb-06 11:00N 23°48' W 073°42'52113.9 050 / 201016.010.8 1.024.021.027.0
2016-Feb-04 21:27N 18°37' W 066°14'1113.0
2016-Feb-04 20:34N 18°27' W 066°07'0 0.3
2016-Feb-04 19:23N 18°28' W 066°07'0 0.0
2016-Feb-04 18:32N 18°28' W 066°07'0 0.0
2016-Feb-04 17:19N 18°28' W 066°07'0 0.0
2016-Feb-04 16:25N 18°28' W 066°07'0 0.0
2016-Feb-04 15:33N 18°28' W 066°07'0 0.0
2016-Feb-04 14:30N 18°28' W 066°07'0 0.0
2016-Feb-04 13:29N 18°28' W 066°07'0 0.0
2016-Feb-04 12:32N 18°28' W 066°07'3 3.3
2016-Feb-04 11:33N 18°31' W 066°07'  
2016-Feb-02 07:00N 20°12' W 071°54'54217.2 160 / 241014.3 3.025.620.027.5
2016-Jan-31 23:32N 25°28' W 079°52'1717.1
2016-Jan-31 22:33N 25°43' W 079°59'1010.3
2016-Jan-31 21:33N 25°47' W 080°10'0 0.0
2016-Jan-31 20:33N 25°47' W 080°10'0 0.0
2016-Jan-31 19:33N 25°47' W 080°10'0 0.0
2016-Jan-31 18:32N 25°47' W 080°10'0 0.0
2016-Jan-31 17:32N 25°47' W 080°10'0 0.0
2016-Jan-31 16:31N 25°47' W 080°10'0 0.0
2016-Jan-31 15:31N 25°47' W 080°10'0 0.0
2016-Jan-31 14:33N 25°47' W 080°10'0 0.0
2016-Jan-31 13:33N 25°47' W 080°10'0 0.0
2016-Jan-31 12:33N 25°47' W 080°10'1 0.8
2016-Jan-31 11:33N 25°46' W 080°09'9 9.0
2016-Jan-31 10:33N 25°44' W 079°60'1211.7
2016-Jan-31 09:33N 25°33' W 079°57'  

Dump ship's entire track history